Newberg, OR (97132)

5:07 PM PDT on August 29, 2015 (GMT -0700)
North Newberg (Antonia Crater) | | Change Station
CLOSE
Current Station
Personal Weather Station
Location: Newberg, OR
Elevation: 292 ft
Nearby Weather Stations

Elev 292 ft 45.33 °N, 122.98 °W | Updated 58 seconds ago

Overcast
Overcast
69.3 °F
Feels Like 69.3 °F
N
2.7
Wind Variable Wind from SW

Today
High -- | Low -- °F
--% Chance of Precip.
Yesterday
High -- | Low -- °F
Precip. -- in
6:29 AM 7:55 PM
Full, 100% visible
Pressure 29.85 in
Visibility 10.0 miles
Clouds Overcast 9500 ft
Dew Point 57 °F
Humidity 65%
Rainfall 0.15 in
Snow Depth Not available.
UV 1 out of 12
Pollen .20 out of 12
Air Quality Not available.
Flu Activity Not available.
METAR KUAO 292353Z AUTO 20010G20KT 10SM OVC095 21/13 A2985 RMK AO2 RAB17E27 SLP107 P0000 60000 T02060133 10233 20194 51009 $
Pressure 29.85 in
Visibility 10.0 miles
Clouds Overcast 9500 ft
Dew Point 57 °F
Humidity 65%
Rainfall 0.15 in
Snow Depth Not available.
UV 1 out of 12
Pollen .20 out of 12
Air Quality Not available.
Flu Activity Not available.
METAR KUAO 292353Z AUTO 20010G20KT 10SM OVC095 21/13 A2985 RMK AO2 RAB17E27 SLP107 P0000 60000 T02060133 10233 20194 51009 $

10-Day Weather Forecast

×

Almanac

Astronomy

Aug. 29, 2015 Rise Set
Actual Time
Civil Twilight
Nautical Twilight
Astronomical Twilight
Moon
Length of Visible Light
Length of Day
Tomorrow will be .
, % of the Moon is Illuminated

Today's Extremes

State Highs State Lows

Community

WunderPhotos

Upload Photos

1,850,789 photos uploaded!

WunderBlogs® & News

Nearby

Air Quality

  Air Quality AQ Index Pollutant
Not available.

Snow Depth

Station Depth Elevation

Earthquake Activity

City Distance Mag. Time & Date
Minimum magnitude displayed is 2.5.

Coastal Water Temperatures

Place Temperature

Stations

Nearby Weather Stations

Station Location Temp. Windchill Dew Point Humidity Wind Precip. Elev Updated Type